Aérodrome :
LOGIN :

S'inscrire | Disclaimer

   EN    FR    IT 

 










Légende :    VFR   VFR Marginal   IFR   IFR Intensif   IFR Très Intensif
Visi : 
Plafond : 
>= 8 km
>= 3000ft
5 à 8 km
1000 à 3000 ft
1500m à 5 km
500 à 1000 ft
800 à 1500m
200 à 500 ft
< 800m
< 200 ft
Symboles :   Orages  Brouillard  Fortes neiges  Fortes précipitations  Vent > 20 kt
SIGMETs :   Divers  Orages  Givrage  Turbulence  Onde Orograph.  Cendres Volcan.






- Altitude de l'aérodrome : -11 ft
- Code IATA : AMS


EHAM - Amsterdam Schiphol

DERNIER METAR :
  • 301955Z 26007KT 9999 FEW005 BKN007 14/13 Q1013 BECMG BKN018

METARs EXPIRÉS :
  • 301925Z 27007KT 250V310 9999 -RA FEW005 SCT007 14/13 Q1013 TEMPO 7000
  • 301855Z 33007KT 300V010 9999 -RA FEW010 BKN048 13/12 Q1012 TEMPO 7000
  • 301825Z 32007KT 280V010 4000 RA FEW010 BKN045 14/12 Q1013 BECMG 7000
  • 301755Z 32006KT 290V010 8000 -RA FEW010 BKN047 14/13 Q1013 NOSIG
  • 301725Z 27013KT 6000 RA FEW013 BKN042 15/12 Q1013 TEMPO 4000
  • 301655Z 29017KT 250V320 9999 -RA FEW015 SCT018 BKN038 15/13 Q1012 BECMG 7000 BKN017

TAF TAF EHAM
Valide du 30 à 18h jusqu'au 02 à 00h UTC


301714Z 3018/0124 29012KT 9999 -RA SCT018 BKN030
BECMG 3018/3020 27007KT
TEMPO 3018/3021 7000 RA SCT012 BKN018
PROB30
TEMPO 3018/3021 4000 RADZ SCT008 BKN012
BECMG 3021/3023 21007KT NSW SCT025
BECMG 0108/0111 24015KT
PROB40
TEMPO 0111/0114 6000 SHRA SCT022CB
BECMG 0117/0120 20008KT



MET'MAP, la Météo Aéronautique d'un coup d'oeil ! - Copyright ORBIFLY Décembre 2007 - Disclaimer

ORBIFLY MET'MAP TEAM :

Programmation & Développement : Alexandra Zaïnal
Sur une idée originale de : Baudouin d'Aumeries
Soutien technique & logistique : Manuel Goepfert
Assistance : Marc-Olivier Méhu




SOURCES & CREDITS :

   NOAA